Time;durP1;ratioP1;P1;durP2;ratioP2;P2;SDS_P1;SDS_P2;PMS_P1;PMS_P2;Temp;Humidity;BMP_temperature;BMP_pressure;BME280_temperature;BME280_humidity;BME280_pressure;Samples;Min_cycle;Max_cycle;Signal;HPM_P1;HPM_P2
2023/08/18 00:01:22;;;;;;;1.80;0.95;;;16.90;99.90;;;;;;5032007;28;20041;-65
2023/08/18 00:03:50;;;;;;;1.83;0.50;;;16.90;99.90;;;;;;5048568;28;20045;-62
2023/08/18 00:06:15;;;;;;;1.33;0.47;;;17.00;99.90;;;;;;5031170;28;20092;-62
2023/08/18 00:08:42;;;;;;;2.33;0.70;;;16.90;99.90;;;;;;5031558;28;20094;-63
2023/08/18 00:11:08;;;;;;;5.18;0.63;;;16.90;99.90;;;;;;5048813;28;20143;-62
2023/08/18 00:13:34;;;;;;;2.55;0.70;;;17.00;99.90;;;;;;5048769;28;20051;-62
2023/08/18 00:16:00;;;;;;;1.83;0.60;;;17.00;99.90;;;;;;5046986;28;20048;-61
2023/08/18 00:18:26;;;;;;;1.83;0.50;;;16.90;99.90;;;;;;5031416;28;20051;-64
2023/08/18 00:20:53;;;;;;;2.58;0.70;;;17.00;99.90;;;;;;5030858;28;20406;-63
2023/08/18 00:23:19;;;;;;;2.50;0.60;;;16.90;99.90;;;;;;5047485;28;20037;-64
2023/08/18 00:25:45;;;;;;;2.10;0.50;;;16.90;99.90;;;;;;5031077;28;20037;-64
2023/08/18 00:28:11;;;;;;;1.80;0.55;;;16.90;99.90;;;;;;5047519;28;20037;-64
2023/08/18 00:30:37;;;;;;;1.77;0.50;;;16.90;99.90;;;;;;5046816;28;20037;-62
2023/08/18 00:33:02;;;;;;;1.73;0.70;;;16.90;99.90;;;;;;5047275;28;20040;-63
2023/08/18 00:35:28;;;;;;;1.65;0.60;;;16.90;99.90;;;;;;5047397;28;20144;-62
2023/08/18 00:37:54;;;;;;;2.65;0.60;;;16.90;99.90;;;;;;5031559;28;20103;-62
2023/08/18 00:40:21;;;;;;;2.13;0.55;;;16.90;99.90;;;;;;5049350;28;20135;-64
2023/08/18 00:42:47;;;;;;;2.97;0.80;;;16.90;99.90;;;;;;5047653;28;20488;-64
2023/08/18 00:45:13;;;;;;;3.13;0.88;;;16.90;99.90;;;;;;5047211;28;20137;-63
2023/08/18 00:47:39;;;;;;;2.17;0.65;;;16.90;99.90;;;;;;5049108;28;20124;-62
2023/08/18 00:50:06;;;;;;;1.70;0.52;;;16.90;99.90;;;;;;5032109;28;20029;-62
2023/08/18 00:52:31;;;;;;;3.15;0.70;;;16.90;99.90;;;;;;5047761;28;20041;-63
2023/08/18 00:54:58;;;;;;;2.65;0.82;;;16.90;99.90;;;;;;5031004;28;20097;-63
2023/08/18 00:57:24;;;;;;;2.53;0.70;;;16.90;99.90;;;;;;5047330;28;20044;-63
2023/08/18 00:59:51;;;;;;;2.60;0.93;;;16.80;99.90;;;;;;5028941;28;20120;-63
2023/08/18 01:02:18;;;;;;;1.55;0.68;;;16.80;99.90;;;;;;5047234;28;20040;-63
2023/08/18 01:04:45;;;;;;;2.55;0.60;;;16.80;99.90;;;;;;5030601;28;20521;-64
2023/08/18 01:07:11;;;;;;;2.70;0.80;;;16.90;99.90;;;;;;5047247;28;20041;-64
2023/08/18 01:09:36;;;;;;;2.50;0.70;;;16.80;99.90;;;;;;5049226;28;20037;-63
2023/08/18 01:12:23;;;;;;;1.90;0.70;;;16.90;99.90;;;;;;5049217;28;20583;-64
2023/08/18 01:15:32;;;;;;;2.70;0.65;;;16.90;99.90;;;;;;5048234;28;20049;-65
2023/08/18 01:18:03;;;;;;;2.53;0.80;;;16.90;99.90;;;;;;5027909;28;20052;-63
2023/08/18 01:20:29;;;;;;;3.03;0.70;;;16.90;99.90;;;;;;5043945;28;20715;-63
2023/08/18 01:22:59;;;;;;;1.83;0.68;;;16.90;99.90;;;;;;5046958;28;20403;-63
2023/08/18 01:25:25;;;;;;;2.33;0.65;;;16.90;99.90;;;;;;5030179;28;20038;-62
2023/08/18 01:27:52;;;;;;;2.80;0.75;;;16.90;99.90;;;;;;5047631;28;20047;-65
2023/08/18 01:30:19;;;;;;;3.60;0.60;;;16.90;99.90;;;;;;5046695;28;20088;-64
2023/08/18 01:32:55;;;;;;;3.72;0.70;;;16.90;99.90;;;;;;5047280;28;20039;-62
2023/08/18 01:35:25;;;;;;;3.00;0.85;;;16.90;99.90;;;;;;5046471;28;20120;-63
2023/08/18 01:37:53;;;;;;;2.47;1.17;;;16.80;99.90;;;;;;5062226;28;20515;-63
2023/08/18 01:40:21;;;;;;;1.58;0.70;;;16.90;99.90;;;;;;5046468;28;20487;-63
2023/08/18 01:42:47;;;;;;;2.17;0.80;;;16.80;99.90;;;;;;5043417;28;20053;-62
2023/08/18 01:45:14;;;;;;;3.45;0.80;;;16.80;99.90;;;;;;5046375;28;20554;-63
2023/08/18 01:47:40;;;;;;;2.15;0.77;;;16.80;99.90;;;;;;5045462;28;20055;-63
2023/08/18 01:50:06;;;;;;;2.75;0.80;;;16.80;99.90;;;;;;5046075;28;20458;-64
2023/08/18 01:52:32;;;;;;;3.15;1.15;;;16.80;99.90;;;;;;5045063;28;20048;-63
2023/08/18 01:54:58;;;;;;;3.22;1.17;;;16.80;99.90;;;;;;5046674;28;20039;-62
2023/08/18 01:57:23;;;;;;;2.55;1.08;;;16.80;99.90;;;;;;5029653;28;20476;-62
2023/08/18 01:59:49;;;;;;;2.40;0.80;;;16.80;99.90;;;;;;5029135;28;20485;-62
2023/08/18 02:02:15;;;;;;;3.47;1.38;;;16.80;99.90;;;;;;5029705;28;20056;-64
2023/08/18 02:04:40;;;;;;;3.40;1.23;;;16.80;99.90;;;;;;5028843;28;20400;-62
2023/08/18 02:07:06;;;;;;;4.95;1.33;;;16.80;99.90;;;;;;5045919;28;20032;-63
2023/08/18 02:09:32;;;;;;;4.20;1.40;;;16.90;99.90;;;;;;5045945;28;20037;-62
2023/08/18 02:11:57;;;;;;;2.30;1.10;;;16.80;99.90;;;;;;5028900;28;20048;-63
2023/08/18 02:14:23;;;;;;;3.03;1.23;;;16.90;99.90;;;;;;5028635;28;20118;-63
2023/08/18 02:16:49;;;;;;;3.58;1.20;;;16.90;99.90;;;;;;5047266;28;20055;-62
2023/08/18 02:19:14;;;;;;;2.97;1.20;;;16.80;99.90;;;;;;5029470;28;20117;-62
2023/08/18 02:21:40;;;;;;;3.63;1.50;;;16.80;99.90;;;;;;5028679;28;20025;-62
2023/08/18 02:24:06;;;;;;;3.42;1.63;;;16.90;99.90;;;;;;5029301;28;20178;-64
2023/08/18 02:26:31;;;;;;;4.60;1.45;;;16.90;99.90;;;;;;5046047;28;20083;-64
2023/08/18 02:28:57;;;;;;;4.35;1.55;;;16.90;99.90;;;;;;5046777;28;20462;-64
2023/08/18 02:31:23;;;;;;;4.35;1.65;;;16.90;99.90;;;;;;5028887;28;20114;-65
2023/08/18 02:33:48;;;;;;;2.53;1.45;;;16.90;99.90;;;;;;5012718;28;20056;-63
2023/08/18 02:36:14;;;;;;;2.20;1.40;;;16.90;99.90;;;;;;5046298;28;20036;-62
2023/08/18 02:38:40;;;;;;;5.45;1.50;;;16.90;99.90;;;;;;5046243;28;20495;-63
2023/08/18 02:41:06;;;;;;;4.57;1.52;;;16.80;99.90;;;;;;5028458;28;20067;-63
2023/08/18 02:43:32;;;;;;;3.88;1.48;;;16.90;99.90;;;;;;5045387;28;20041;-64
2023/08/18 02:45:59;;;;;;;4.22;2.00;;;16.90;99.90;;;;;;5044554;28;20052;-63
2023/08/18 02:48:27;;;;;;;3.97;1.63;;;16.80;99.90;;;;;;5015118;28;20041;-62
2023/08/18 02:51:03;;;;;;;5.57;1.73;;;16.90;99.90;;;;;;5044721;28;20115;-63
2023/08/18 02:53:29;;;;;;;4.18;1.70;;;16.90;99.90;;;;;;5045459;28;20098;-63
2023/08/18 02:55:55;;;;;;;5.57;1.90;;;16.90;99.90;;;;;;5031889;28;20036;-62
2023/08/18 02:58:21;;;;;;;5.55;1.50;;;17.00;99.90;;;;;;5048768;28;20194;-63
2023/08/18 03:00:47;;;;;;;4.68;1.60;;;16.90;99.90;;;;;;5048852;28;20532;-62
2023/08/18 03:03:13;;;;;;;4.03;1.58;;;16.90;99.90;;;;;;5049174;28;20037;-63
2023/08/18 03:05:39;;;;;;;7.90;2.17;;;17.00;99.90;;;;;;5049009;28;20037;-63
2023/08/18 03:08:05;;;;;;;2.85;1.67;;;17.00;99.90;;;;;;5032712;28;20048;-64
2023/08/18 03:10:31;;;;;;;4.85;1.75;;;17.00;99.90;;;;;;5032695;28;20041;-63
2023/08/18 03:12:56;;;;;;;5.80;1.52;;;17.00;99.90;;;;;;5049643;28;20059;-63
2023/08/18 03:15:22;;;;;;;3.55;1.73;;;17.00;99.90;;;;;;5048490;28;20110;-62
2023/08/18 03:17:49;;;;;;;4.50;1.50;;;17.00;99.90;;;;;;5049612;28;20049;-62
2023/08/18 03:20:34;;;;;;;3.75;1.58;;;17.00;99.90;;;;;;5049325;28;20476;-63
2023/08/18 03:23:00;;;;;;;3.42;1.55;;;17.00;99.90;;;;;;5048902;28;20048;-62
2023/08/18 03:25:26;;;;;;;4.10;1.67;;;17.00;99.90;;;;;;5049274;28;20044;-63
2023/08/18 03:27:51;;;;;;;3.65;1.95;;;17.00;99.90;;;;;;5048871;28;20036;-64
2023/08/18 03:30:17;;;;;;;7.10;1.92;;;17.00;99.90;;;;;;5048707;28;20502;-63
2023/08/18 03:32:43;;;;;;;4.20;1.55;;;17.00;99.90;;;;;;5015186;28;20402;-63
2023/08/18 03:35:09;;;;;;;3.67;1.88;;;17.00;99.90;;;;;;5017856;28;20051;-63
2023/08/18 03:37:34;;;;;;;4.28;2.33;;;17.00;99.90;;;;;;5048689;28;20117;-62
2023/08/18 03:40:03;;;;;;;4.03;2.30;;;17.00;99.90;;;;;;5031625;28;20029;-62
2023/08/18 03:42:28;;;;;;;4.18;1.92;;;17.00;99.90;;;;;;5047712;28;20127;-62
2023/08/18 03:44:54;;;;;;;4.10;2.00;;;17.00;99.90;;;;;;5032697;28;20125;-62
2023/08/18 03:47:20;;;;;;;4.78;2.50;;;17.00;99.90;;;;;;5047772;28;20048;-64
2023/08/18 03:49:45;;;;;;;4.95;2.92;;;17.00;99.90;;;;;;5048487;28;20522;-63
2023/08/18 03:52:11;;;;;;;4.53;2.60;;;17.00;99.90;;;;;;5031514;28;20434;-63
2023/08/18 03:54:37;;;;;;;4.30;2.60;;;17.00;99.90;;;;;;5031928;28;20045;-63
2023/08/18 03:57:03;;;;;;;7.20;3.15;;;17.00;99.90;;;;;;5047912;28;20045;-62
2023/08/18 03:59:29;;;;;;;5.72;2.63;;;16.90;99.90;;;;;;5048032;28;20449;-62
2023/08/18 04:01:54;;;;;;;4.00;2.70;;;17.00;99.90;;;;;;5048292;28;20053;-63
2023/08/18 04:04:20;;;;;;;4.65;2.70;;;17.00;99.90;;;;;;5050326;28;20064;-64
2023/08/18 04:06:45;;;;;;;6.57;3.00;;;17.00;99.90;;;;;;5047893;28;20120;-64
2023/08/18 04:09:15;;;;;;;4.45;2.88;;;17.00;99.90;;;;;;5048020;28;20036;-62
2023/08/18 04:11:43;;;;;;;4.65;2.80;;;17.00;99.90;;;;;;5047795;28;20581;-62
2023/08/18 04:14:09;;;;;;;7.75;2.88;;;17.00;99.90;;;;;;5047457;28;20457;-63
2023/08/18 04:16:35;;;;;;;6.88;3.08;;;17.00;99.90;;;;;;5048753;28;20360;-63
2023/08/18 04:19:01;;;;;;;6.32;2.95;;;17.00;99.90;;;;;;5047846;28;20051;-64
2023/08/18 04:21:27;;;;;;;6.88;2.92;;;17.00;99.90;;;;;;5031606;28;20042;-64
2023/08/18 04:24:13;;;;;;;5.45;2.92;;;17.00;99.90;;;;;;5048001;28;20079;-64
2023/08/18 04:27:17;;;;;;;7.82;3.08;;;17.00;99.90;;;;;;5047627;28;20040;-63
2023/08/18 04:29:44;;;;;;;7.32;3.03;;;17.00;99.90;;;;;;5047941;28;20084;-63
2023/08/18 04:32:09;;;;;;;5.47;2.80;;;17.00;99.90;;;;;;5047904;28;20124;-63
2023/08/18 04:34:35;;;;;;;7.57;2.70;;;17.00;99.90;;;;;;5031406;28;20610;-63
2023/08/18 04:37:02;;;;;;;5.75;2.58;;;17.00;99.90;;;;;;5049238;28;20029;-63
2023/08/18 04:39:29;;;;;;;4.22;2.50;;;17.00;99.90;;;;;;5047531;28;20041;-64
2023/08/18 04:41:55;;;;;;;6.15;2.92;;;17.00;99.90;;;;;;5047348;28;20037;-63
2023/08/18 04:44:20;;;;;;;7.80;3.13;;;17.00;99.90;;;;;;5047455;28;21944;-63
2023/08/18 04:47:24;;;;;;;4.68;2.83;;;17.00;99.90;;;;;;5047707;28;20033;-63
2023/08/18 04:49:49;;;;;;;7.18;2.95;;;17.10;99.90;;;;;;5047876;28;20132;-62
2023/08/18 04:52:15;;;;;;;5.60;3.10;;;17.00;99.90;;;;;;5048682;28;20120;-64
2023/08/18 04:54:41;;;;;;;8.40;3.65;;;17.00;99.90;;;;;;5047647;28;20154;-62
2023/08/18 04:57:07;;;;;;;4.88;3.33;;;17.00;99.90;;;;;;5022384;28;20055;-65
2023/08/18 04:59:33;;;;;;;6.90;3.70;;;17.00;99.90;;;;;;5013893;28;20147;-64
2023/08/18 05:01:59;;;;;;;7.32;3.50;;;17.00;99.90;;;;;;5013434;28;20071;-64
2023/08/18 05:04:25;;;;;;;6.10;3.55;;;17.00;99.90;;;;;;5029891;28;20103;-64
2023/08/18 05:06:52;;;;;;;6.60;3.30;;;17.10;99.90;;;;;;5031884;28;20067;-62
2023/08/18 05:09:18;;;;;;;7.75;3.42;;;17.00;99.90;;;;;;5013437;28;20033;-63
2023/08/18 05:11:43;;;;;;;6.53;3.50;;;17.10;99.90;;;;;;5030817;28;20130;-63
2023/08/18 05:14:09;;;;;;;7.75;3.78;;;17.10;99.90;;;;;;5029813;28;20037;-64
2023/08/18 05:16:35;;;;;;;6.70;3.80;;;17.10;99.90;;;;;;5029706;28;20424;-63
2023/08/18 05:19:01;;;;;;;6.13;3.72;;;17.10;99.90;;;;;;5029647;28;20327;-67
2023/08/18 05:21:27;;;;;;;5.70;4.20;;;17.20;99.90;;;;;;5029551;28;20460;-64
2023/08/18 05:23:52;;;;;;;10.23;4.85;;;17.10;99.90;;;;;;5013488;28;20037;-64
2023/08/18 05:26:18;;;;;;;7.65;4.47;;;17.10;99.90;;;;;;4992545;28;20254;-64
2023/08/18 05:28:44;;;;;;;6.82;4.20;;;17.20;99.90;;;;;;5012665;28;20067;-63
2023/08/18 05:31:10;;;;;;;6.65;4.38;;;17.20;99.90;;;;;;5028746;28;20076;-64
2023/08/18 05:33:36;;;;;;;9.35;4.50;;;17.20;99.90;;;;;;5028888;28;20815;-63
2023/08/18 05:36:04;;;;;;;8.02;4.05;;;17.20;99.90;;;;;;5012068;28;20488;-65
2023/08/18 05:38:30;;;;;;;6.85;4.60;;;17.20;99.90;;;;;;5028403;28;20554;-64
2023/08/18 05:41:07;;;;;;;9.48;4.47;;;17.30;99.90;;;;;;4996659;28;20143;-64
2023/08/18 05:43:37;;;;;;;8.68;4.65;;;17.20;99.90;;;;;;5029007;28;20488;-63
2023/08/18 05:46:04;;;;;;;8.63;5.40;;;17.30;99.90;;;;;;5030700;28;20561;-64
2023/08/18 05:48:32;;;;;;;7.63;4.68;;;17.40;99.90;;;;;;5028749;28;20228;-63
2023/08/18 05:50:58;;;;;;;6.38;4.45;;;17.30;99.90;;;;;;5013289;28;20583;-65
2023/08/18 05:53:24;;;;;;;8.32;5.03;;;17.40;99.90;;;;;;5029347;28;20162;-64
2023/08/18 05:55:50;;;;;;;5.70;4.60;;;17.40;99.90;;;;;;5015447;28;20543;-64
2023/08/18 05:58:16;;;;;;;6.47;4.90;;;17.50;99.90;;;;;;5016896;28;20101;-65
2023/08/18 06:00:42;;;;;;;8.45;5.00;;;17.50;99.90;;;;;;5030350;28;20586;-63
2023/08/18 06:03:08;;;;;;;11.30;5.85;;;17.50;99.90;;;;;;5031852;28;20047;-64
2023/08/18 06:05:34;;;;;;;9.52;5.22;;;17.50;99.90;;;;;;5013326;28;20355;-64
2023/08/18 06:08:00;;;;;;;7.63;5.40;;;17.60;99.90;;;;;;5014002;28;20037;-63
2023/08/18 06:10:26;;;;;;;8.93;5.65;;;17.60;99.90;;;;;;5029661;28;20090;-64
2023/08/18 06:12:51;;;;;;;10.45;5.38;;;17.60;99.90;;;;;;5029817;28;20033;-64
2023/08/18 06:15:19;;;;;;;9.40;5.30;;;17.60;99.90;;;;;;5029302;28;20582;-63
2023/08/18 06:17:45;;;;;;;8.23;5.05;;;17.70;99.90;;;;;;5030716;28;20057;-63
2023/08/18 06:20:12;;;;;;;8.38;5.45;;;17.70;99.90;;;;;;5030873;28;20531;-63
2023/08/18 06:22:38;;;;;;;7.22;5.13;;;17.70;99.90;;;;;;5012977;28;20401;-64
2023/08/18 06:25:06;;;;;;;8.50;5.55;;;17.80;99.90;;;;;;5028055;28;20040;-64
2023/08/18 06:27:32;;;;;;;8.73;5.47;;;17.80;99.90;;;;;;5029566;28;20351;-65
2023/08/18 06:29:58;;;;;;;9.80;5.55;;;17.80;99.90;;;;;;5011941;28;20654;-64
2023/08/18 06:32:23;;;;;;;8.23;5.47;;;17.90;99.90;;;;;;4995337;28;20103;-64
2023/08/18 06:34:52;;;;;;;10.90;6.13;;;17.90;99.90;;;;;;5028404;28;20344;-64
2023/08/18 06:37:19;;;;;;;9.63;5.32;;;18.00;99.90;;;;;;5028865;28;20820;-64
2023/08/18 06:39:45;;;;;;;9.48;6.10;;;18.00;99.90;;;;;;5012381;28;20083;-64
2023/08/18 06:42:12;;;;;;;9.73;5.60;;;18.00;99.90;;;;;;5028590;28;20043;-64
2023/08/18 06:44:37;;;;;;;8.63;5.80;;;18.10;99.90;;;;;;5011882;28;20566;-64
2023/08/18 06:47:03;;;;;;;8.18;5.82;;;18.20;99.90;;;;;;5028364;28;20207;-64
2023/08/18 06:49:29;;;;;;;8.32;5.28;;;18.30;99.90;;;;;;5029415;28;20037;-64
2023/08/18 06:51:55;;;;;;;8.18;5.75;;;18.40;99.90;;;;;;5028619;28;20041;-64
2023/08/18 06:54:20;;;;;;;11.80;6.35;;;18.50;99.90;;;;;;5028869;28;20080;-63
2023/08/18 06:56:46;;;;;;;9.13;5.90;;;18.50;99.90;;;;;;5029692;28;20033;-65
2023/08/18 06:59:12;;;;;;;8.75;5.80;;;18.50;99.90;;;;;;5012245;28;20839;-64
2023/08/18 07:01:41;;;;;;;10.23;6.15;;;18.60;99.90;;;;;;5028787;28;20045;-63
2023/08/18 07:04:08;;;;;;;10.75;6.15;;;18.50;99.90;;;;;;5028632;28;20360;-63
2023/08/18 07:06:34;;;;;;;10.93;5.88;;;18.60;99.90;;;;;;5027824;28;20601;-63
2023/08/18 07:09:01;;;;;;;9.52;5.72;;;18.60;99.90;;;;;;5027584;28;20044;-63
2023/08/18 07:11:27;;;;;;;12.50;6.07;;;18.60;99.90;;;;;;5011697;28;20129;-63
2023/08/18 07:13:52;;;;;;;9.88;5.70;;;18.50;99.90;;;;;;5028994;28;20049;-64
2023/08/18 07:16:18;;;;;;;9.70;5.57;;;18.60;99.90;;;;;;5011070;28;20064;-64
2023/08/18 07:18:44;;;;;;;9.82;5.45;;;18.50;99.90;;;;;;5028958;28;20310;-66
2023/08/18 07:21:09;;;;;;;6.88;5.15;;;18.60;99.90;;;;;;5012946;28;20041;-64
2023/08/18 07:23:35;;;;;;;8.98;5.55;;;18.60;99.90;;;;;;5012637;28;20044;-64
2023/08/18 07:26:03;;;;;;;9.20;4.93;;;18.60;99.90;;;;;;5012358;28;20041;-62
2023/08/18 07:28:28;;;;;;;8.40;5.35;;;18.60;99.90;;;;;;5029861;28;20049;-63
2023/08/18 07:30:54;;;;;;;9.63;5.70;;;18.60;99.90;;;;;;5032549;28;20041;-62
2023/08/18 07:33:20;;;;;;;7.50;5.25;;;18.50;99.90;;;;;;5034446;28;20497;-62
2023/08/18 07:35:46;;;;;;;10.73;5.32;;;18.50;99.90;;;;;;5029889;28;20052;-64
2023/08/18 07:38:12;;;;;;;9.82;5.75;;;18.40;99.90;;;;;;5028211;28;20045;-64
2023/08/18 07:40:37;;;;;;;12.93;6.20;;;18.40;99.90;;;;;;5030044;28;20149;-64
2023/08/18 07:43:03;;;;;;;10.27;6.22;;;18.50;99.90;;;;;;5033082;28;20508;-64
2023/08/18 07:45:29;;;;;;;9.10;5.90;;;18.50;99.90;;;;;;5033659;28;20052;-63
2023/08/18 07:47:55;;;;;;;10.05;5.20;;;18.50;99.90;;;;;;5033450;28;20045;-64
2023/08/18 07:50:21;;;;;;;9.38;6.00;;;18.50;99.90;;;;;;5033755;28;20288;-63
2023/08/18 07:52:46;;;;;;;10.27;5.80;;;18.60;99.90;;;;;;5032952;28;20045;-63
2023/08/18 07:55:13;;;;;;;10.55;5.93;;;18.70;99.90;;;;;;4999640;28;20037;-62
2023/08/18 07:57:39;;;;;;;9.15;5.78;;;18.80;99.90;;;;;;5016070;28;20187;-63
2023/08/18 08:00:20;;;;;;;9.18;5.90;;;18.90;99.90;;;;;;5016305;28;20317;-63
2023/08/18 08:02:47;;;;;;;10.18;5.80;;;18.80;99.90;;;;;;5032542;28;20503;-62
2023/08/18 08:05:14;;;;;;;9.07;6.00;;;18.80;99.90;;;;;;5016816;28;20092;-62
2023/08/18 08:07:40;;;;;;;10.68;5.40;;;18.70;99.90;;;;;;5032410;28;20049;-63
2023/08/18 08:10:07;;;;;;;9.63;5.47;;;18.70;99.90;;;;;;5016439;28;20072;-63
2023/08/18 08:12:38;;;;;;;7.38;4.93;;;18.80;99.90;;;;;;5032110;28;20051;-64
2023/08/18 08:15:05;;;;;;;9.85;6.13;;;18.70;99.90;;;;;;4999829;28;20098;-62
2023/08/18 08:17:32;;;;;;;7.20;5.25;;;18.80;99.90;;;;;;5032828;28;20195;-63
2023/08/18 08:20:00;;;;;;;9.75;6.25;;;18.80;99.90;;;;;;5032496;28;20396;-63
2023/08/18 08:22:26;;;;;;;12.48;6.55;;;18.70;99.90;;;;;;5032091;28;20352;-62
2023/08/18 08:24:54;;;;;;;9.63;6.10;;;18.60;99.90;;;;;;5015594;28;20049;-63
2023/08/18 08:27:20;;;;;;;6.07;4.57;;;18.60;99.90;;;;;;5032526;28;20056;-64
2023/08/18 08:29:46;;;;;;;10.25;4.63;;;18.70;99.90;;;;;;5015970;28;20036;-64
2023/08/18 08:32:12;;;;;;;6.45;4.47;;;18.80;99.90;;;;;;5032292;28;20106;-64
2023/08/18 08:34:49;;;;;;;8.77;4.20;;;18.80;99.90;;;;;;5031998;28;20056;-64
2023/08/18 08:37:15;;;;;;;8.75;4.65;;;18.80;99.90;;;;;;5031631;28;20220;-63
2023/08/18 08:39:40;;;;;;;9.10;4.63;;;18.90;99.90;;;;;;5032082;28;20146;-64
2023/08/18 08:42:06;;;;;;;8.38;4.85;;;19.00;99.90;;;;;;5015604;28;20588;-64
2023/08/18 08:44:32;;;;;;;8.23;5.10;;;19.10;99.90;;;;;;5015432;28;20111;-64
2023/08/18 08:47:00;;;;;;;5.78;4.53;;;19.20;99.90;;;;;;5033792;28;20053;-64
2023/08/18 08:49:29;;;;;;;8.85;4.82;;;19.20;99.90;;;;;;5031736;28;20041;-64
2023/08/18 08:52:08;;;;;;;9.95;4.80;;;19.20;99.90;;;;;;5013783;28;20759;-63
2023/08/18 08:54:38;;;;;;;8.35;4.65;;;19.20;99.90;;;;;;5015737;28;20385;-63
2023/08/18 08:57:06;;;;;;;7.95;4.65;;;19.30;99.90;;;;;;5014521;28;20127;-62
2023/08/18 08:59:33;;;;;;;8.50;4.78;;;19.40;99.90;;;;;;5031655;28;20049;-62
2023/08/18 09:01:59;;;;;;;8.85;4.25;;;19.40;99.90;;;;;;5032847;28;20699;-62
2023/08/18 09:04:25;;;;;;;8.82;4.10;;;19.50;99.90;;;;;;5031103;28;20541;-63
2023/08/18 09:06:50;;;;;;;7.47;3.83;;;19.70;99.90;;;;;;5031956;28;20044;-63
2023/08/18 09:09:18;;;;;;;9.07;3.50;;;19.70;99.90;;;;;;5031813;28;20049;-63
2023/08/18 09:11:45;;;;;;;6.60;3.80;;;19.80;99.90;;;;;;5031520;28;20425;-63
2023/08/18 09:14:12;;;;;;;11.20;3.83;;;19.80;99.90;;;;;;5030959;28;20080;-63
2023/08/18 09:16:38;;;;;;;8.73;3.10;;;20.00;99.90;;;;;;5014515;28;20059;-64
2023/08/18 09:19:04;;;;;;;10.15;3.53;;;20.10;99.90;;;;;;5031400;28;20052;-63
2023/08/18 09:21:32;;;;;;;8.55;3.10;;;20.10;99.90;;;;;;5031687;28;20131;-64
2023/08/18 09:23:58;;;;;;;5.68;2.80;;;20.20;99.90;;;;;;5031199;28;20250;-63
2023/08/18 09:26:25;;;;;;;6.93;3.20;;;20.30;99.90;;;;;;4996547;28;20041;-63
2023/08/18 09:28:51;;;;;;;6.78;3.00;;;20.40;99.90;;;;;;5030945;28;20045;-63
2023/08/18 09:31:21;;;;;;;5.50;2.53;;;20.40;99.90;;;;;;5030873;28;20560;-63
2023/08/18 09:33:46;;;;;;;7.47;2.50;;;20.50;99.90;;;;;;5014411;28;20059;-62
2023/08/18 09:36:13;;;;;;;4.88;2.60;;;20.50;99.90;;;;;;5031363;28;20347;-63
2023/08/18 09:38:43;;;;;;;8.02;2.80;;;20.70;99.90;;;;;;5031055;28;20528;-63
2023/08/18 09:41:09;;;;;;;6.28;2.08;;;20.80;99.90;;;;;;5014110;28;20044;-63
2023/08/18 09:43:36;;;;;;;4.32;2.30;;;21.10;99.90;;;;;;5032485;28;20394;-63
2023/08/18 09:46:06;;;;;;;5.45;2.60;;;21.30;99.90;;;;;;5030581;28;20051;-65
2023/08/18 09:48:39;;;;;;;6.97;2.75;;;21.40;99.90;;;;;;5031343;28;20076;-64
2023/08/18 09:51:08;;;;;;;5.25;2.38;;;21.50;99.90;;;;;;5030304;28;20168;-63
2023/08/18 09:53:34;;;;;;;4.82;2.45;;;21.60;99.90;;;;;;5030433;28;20275;-66
2023/08/18 09:56:14;;;;;;;6.85;2.63;;;21.60;99.90;;;;;;4998042;28;20534;-65
2023/08/18 09:58:55;;;;;;;3.88;2.10;;;21.40;99.90;;;;;;5014482;28;20048;-64
2023/08/18 10:01:23;;;;;;;6.28;2.00;;;21.30;99.90;;;;;;5013404;28;20044;-66
2023/08/18 10:03:49;;;;;;;5.75;2.30;;;21.40;99.90;;;;;;5030080;28;20686;-63
2023/08/18 10:06:17;;;;;;;9.20;2.42;;;21.70;99.90;;;;;;5030429;28;20203;-64
2023/08/18 10:08:43;;;;;;;3.40;1.80;;;22.10;99.90;;;;;;4997857;28;20079;-64
2023/08/18 10:11:10;;;;;;;3.88;1.80;;;22.30;99.90;;;;;;5029813;28;20049;-64
2023/08/18 10:13:37;;;;;;;4.30;1.60;;;22.30;99.90;;;;;;5030242;28;20049;-63
2023/08/18 10:16:05;;;;;;;4.60;1.88;;;22.30;99.90;;;;;;5029909;28;20056;-63
2023/08/18 10:18:31;;;;;;;4.07;1.80;;;22.40;99.90;;;;;;5029979;28;20284;-64
2023/08/18 10:20:58;;;;;;;4.95;1.85;;;22.40;99.90;;;;;;5030353;28;20044;-63
2023/08/18 10:23:29;;;;;;;5.57;2.20;;;22.40;99.90;;;;;;5030345;28;20048;-63
2023/08/18 10:25:55;;;;;;;6.43;2.28;;;22.40;99.90;;;;;;5030848;28;20037;-64
2023/08/18 10:28:27;;;;;;;6.03;2.10;;;22.30;99.90;;;;;;5012248;28;20136;-63
2023/08/18 10:31:11;;;;;;;4.97;2.03;;;22.40;99.90;;;;;;5012269;28;20045;-64
2023/08/18 10:33:45;;;;;;;5.22;2.03;;;22.80;99.90;;;;;;5031615;28;20053;-63
2023/08/18 10:36:21;;;;;;;5.80;1.90;;;22.90;99.90;;;;;;5028606;28;20095;-64
2023/08/18 10:38:47;;;;;;;4.18;2.22;;;22.80;99.90;;;;;;5031281;28;20452;-63
2023/08/18 10:41:13;;;;;;;3.65;2.30;;;22.80;99.90;;;;;;5031567;28;20588;-62
2023/08/18 10:43:47;;;;;;;4.65;2.13;;;22.60;99.90;;;;;;5046617;28;20132;-63
2023/08/18 10:46:13;;;;;;;5.72;2.13;;;22.70;99.90;;;;;;4997705;28;20037;-63
2023/08/18 10:48:40;;;;;;;6.38;2.40;;;22.70;99.90;;;;;;5030104;28;20048;-63
2023/08/18 10:51:06;;;;;;;4.63;2.30;;;22.70;99.90;;;;;;5030193;28;20232;-63
2023/08/18 10:53:34;;;;;;;4.70;2.33;;;23.00;99.90;;;;;;5013400;28;20049;-63
2023/08/18 10:56:00;;;;;;;5.25;2.25;;;23.70;99.90;;;;;;5013262;28;20320;-64
2023/08/18 10:58:26;;;;;;;5.32;2.90;;;24.00;99.90;;;;;;5029710;28;20330;-63
2023/08/18 11:00:52;;;;;;;5.32;2.63;;;23.80;99.90;;;;;;5030245;28;20056;-63
2023/08/18 11:03:18;;;;;;;5.20;2.83;;;23.80;99.90;;;;;;5012944;28;20053;-64
2023/08/18 11:05:45;;;;;;;4.78;3.20;;;24.00;99.90;;;;;;5030016;28;20048;-65
2023/08/18 11:08:11;;;;;;;7.15;3.92;;;24.40;99.90;;;;;;5029941;28;20337;-64
2023/08/18 11:10:39;;;;;;;6.20;3.70;;;24.40;99.90;;;;;;5013209;28;20037;-65
2023/08/18 11:13:05;;;;;;;5.40;3.50;;;24.70;99.90;;;;;;5013199;28;20041;-64
2023/08/18 11:15:32;;;;;;;7.63;3.70;;;25.00;99.90;;;;;;5030313;28;20040;-66
2023/08/18 11:17:58;;;;;;;10.80;3.72;;;25.10;99.90;;;;;;5033675;28;20391;-64
2023/08/18 11:20:23;;;;;;;7.03;3.88;;;25.60;99.90;;;;;;5000539;28;20624;-64
2023/08/18 11:22:54;;;;;;;6.72;4.30;;;25.90;99.90;;;;;;5016475;28;20053;-65
2023/08/18 11:25:22;;;;;;;6.05;4.20;;;25.80;99.90;;;;;;5034090;28;20592;-64
2023/08/18 11:27:49;;;;;;;6.60;4.65;;;25.60;99.90;;;;;;5033429;28;20045;-64
2023/08/18 11:30:15;;;;;;;4.70;4.20;;;25.40;99.90;;;;;;5033105;28;20041;-65
2023/08/18 11:32:42;;;;;;;6.78;4.68;;;25.40;99.90;;;;;;5032946;28;20327;-64
2023/08/18 11:35:12;;;;;;;5.32;4.25;;;25.60;99.90;;;;;;5033144;28;20114;-64
2023/08/18 11:37:52;;;;;;;7.20;5.07;;;25.90;98.40;;;;;;5017066;28;20135;-63
2023/08/18 11:40:21;;;;;;;5.70;4.45;;;26.50;74.20;;;;;;5033001;28;20084;-63
2023/08/18 11:42:48;;;;;;;5.97;3.92;;;26.80;53.20;;;;;;5031789;28;20989;-63
2023/08/18 11:45:19;;;;;;;7.07;5.40;;;26.60;65.60;;;;;;5000058;28;20134;-63
2023/08/18 11:47:57;;;;;;;6.30;4.50;;;26.80;53.60;;;;;;5034976;28;20036;-64
2023/08/18 11:50:37;;;;;;;8.05;5.18;;;26.70;49.80;;;;;;5015700;28;20045;-64
2023/08/18 11:53:05;;;;;;;8.73;5.80;;;26.20;51.80;;;;;;5015490;28;20136;-65
2023/08/18 11:55:35;;;;;;;6.75;5.25;;;25.70;69.20;;;;;;5034099;28;20036;-64
2023/08/18 11:58:10;;;;;;;6.55;5.10;;;25.60;84.40;;;;;;5034395;28;20287;-63
2023/08/18 12:00:38;;;;;;;5.38;4.88;;;26.00;78.60;;;;;;5033811;28;20049;-63
2023/08/18 12:03:05;;;;;;;7.45;5.47;;;26.20;57.40;;;;;;5031904;28;20175;-64
2023/08/18 12:05:31;;;;;;;5.70;5.10;;;26.20;65.70;;;;;;5032653;28;20157;-65
2023/08/18 12:08:00;;;;;;;6.38;5.35;;;26.50;62.00;;;;;;5032457;28;20487;-63
2023/08/18 12:10:26;;;;;;;7.85;6.03;;;27.00;53.30;;;;;;5033860;28;20451;-64
2023/08/18 12:12:53;;;;;;;5.93;5.20;;;27.10;32.80;;;;;;5032164;28;20040;-63
2023/08/18 12:15:25;;;;;;;5.47;4.80;;;27.00;35.80;;;;;;5031522;28;20352;-64
2023/08/18 12:17:50;;;;;;;6.90;4.63;;;27.10;35.50;;;;;;5032555;28;20049;-64
2023/08/18 12:20:20;;;;;;;7.47;4.72;;;27.10;33.80;;;;;;5032284;28;20313;-65
2023/08/18 12:22:48;;;;;;;5.38;4.88;;;27.00;30.80;;;;;;5015843;28;20041;-64
2023/08/18 12:25:14;;;;;;;6.63;5.22;;;26.80;30.20;;;;;;5033568;28;20088;-64
2023/08/18 12:27:41;;;;;;;6.60;5.45;;;26.90;35.50;;;;;;5033695;28;20451;-64
2023/08/18 12:30:07;;;;;;;5.68;5.10;;;27.10;32.40;;;;;;5015248;28;20047;-64
2023/08/18 12:32:33;;;;;;;6.40;4.95;;;27.30;29.20;;;;;;5032921;28;20048;-64
2023/08/18 12:34:59;;;;;;;6.55;5.63;;;27.30;27.10;;;;;;5034036;28;20045;-65
2023/08/18 12:37:25;;;;;;;5.85;5.25;;;27.50;28.60;;;;;;5015958;28;20494;-63
2023/08/18 12:39:50;;;;;;;6.43;4.78;;;27.60;24.90;;;;;;5031702;28;20079;-64
2023/08/18 12:42:16;;;;;;;5.70;5.20;;;27.90;19.00;;;;;;5031481;28;20048;-64
2023/08/18 12:44:42;;;;;;;8.85;5.28;;;28.00;17.60;;;;;;5015127;28;20419;-65
2023/08/18 12:47:08;;;;;;;5.68;5.18;;;28.10;11.30;;;;;;5014756;28;20523;-64